sensor_id;sensor_type;location;lat;lon;timestamp;pressure;altitude;pressure_sealevel;temperature;humidity
73234;BME280;62293;-26.174;27.908;2022-08-21T00:02:16;83970.98;;;17.94;16.79
73234;BME280;62293;-26.174;27.908;2022-08-21T00:04:37;83982.74;;;17.16;17.37
73234;BME280;62293;-26.174;27.908;2022-08-21T00:07:03;83982.90;;;17.60;16.66
73234;BME280;62293;-26.174;27.908;2022-08-21T00:09:28;83985.94;;;16.93;17.34
73234;BME280;62293;-26.174;27.908;2022-08-21T00:11:53;83987.16;;;17.31;17.20
73234;BME280;62293;-26.174;27.908;2022-08-21T00:14:19;83987.68;;;17.01;17.44
73234;BME280;62293;-26.174;27.908;2022-08-21T00:16:44;83975.56;;;17.96;16.84
73234;BME280;62293;-26.174;27.908;2022-08-21T00:19:09;83979.35;;;17.06;17.43
73234;BME280;62293;-26.174;27.908;2022-08-21T00:21:36;83982.38;;;17.09;17.26
73234;BME280;62293;-26.174;27.908;2022-08-21T00:24:00;83978.34;;;16.76;17.39
73234;BME280;62293;-26.174;27.908;2022-08-21T00:26:26;83975.23;;;16.77;17.49
73234;BME280;62293;-26.174;27.908;2022-08-21T00:28:51;83974.76;;;16.62;17.40
73234;BME280;62293;-26.174;27.908;2022-08-21T00:31:17;83974.86;;;17.15;17.31
73234;BME280;62293;-26.174;27.908;2022-08-21T00:33:42;83962.93;;;17.11;17.37
73234;BME280;62293;-26.174;27.908;2022-08-21T00:36:08;83969.99;;;16.93;17.39
73234;BME280;62293;-26.174;27.908;2022-08-21T00:38:33;83967.61;;;17.12;17.48
73234;BME280;62293;-26.174;27.908;2022-08-21T00:41:00;83963.20;;;16.95;17.68
73234;BME280;62293;-26.174;27.908;2022-08-21T00:43:25;83968.00;;;17.14;17.61
73234;BME280;62293;-26.174;27.908;2022-08-21T00:45:49;83963.62;;;16.67;17.58
73234;BME280;62293;-26.174;27.908;2022-08-21T00:48:14;83961.35;;;16.69;17.59
73234;BME280;62293;-26.174;27.908;2022-08-21T00:50:43;83972.44;;;16.87;17.92
73234;BME280;62293;-26.174;27.908;2022-08-21T00:53:06;83973.41;;;16.37;17.84
73234;BME280;62293;-26.174;27.908;2022-08-21T00:55:31;83969.84;;;16.97;17.62
73234;BME280;62293;-26.174;27.908;2022-08-21T00:57:57;83971.64;;;16.97;17.35
73234;BME280;62293;-26.174;27.908;2022-08-21T01:00:23;83969.76;;;17.04;17.56
73234;BME280;62293;-26.174;27.908;2022-08-21T01:02:46;83969.02;;;17.04;17.64
73234;BME280;62293;-26.174;27.908;2022-08-21T01:05:12;83973.47;;;16.44;17.70
73234;BME280;62293;-26.174;27.908;2022-08-21T01:07:37;83976.39;;;16.98;17.66
73234;BME280;62293;-26.174;27.908;2022-08-21T01:10:03;83974.08;;;16.64;17.86
73234;BME280;62293;-26.174;27.908;2022-08-21T01:12:28;83971.11;;;16.63;18.04
73234;BME280;62293;-26.174;27.908;2022-08-21T01:14:53;83974.85;;;16.87;17.70
73234;BME280;62293;-26.174;27.908;2022-08-21T01:17:18;83975.63;;;16.88;17.77
73234;BME280;62293;-26.174;27.908;2022-08-21T01:19:43;83975.59;;;17.10;17.49
73234;BME280;62293;-26.174;27.908;2022-08-21T01:22:09;83981.72;;;17.03;17.42
73234;BME280;62293;-26.174;27.908;2022-08-21T01:24:34;83982.02;;;17.25;17.66
73234;BME280;62293;-26.174;27.908;2022-08-21T01:27:00;83975.68;;;16.92;17.44
73234;BME280;62293;-26.174;27.908;2022-08-21T01:29:32;83974.39;;;16.82;17.81
73234;BME280;62293;-26.174;27.908;2022-08-21T01:31:50;83970.60;;;17.08;17.68
73234;BME280;62293;-26.174;27.908;2022-08-21T01:34:15;83975.41;;;17.00;17.23
73234;BME280;62293;-26.174;27.908;2022-08-21T01:36:40;83978.61;;;17.53;17.19
73234;BME280;62293;-26.174;27.908;2022-08-21T01:39:06;83976.14;;;17.24;17.41
73234;BME280;62293;-26.174;27.908;2022-08-21T01:41:31;83973.87;;;17.32;17.58
73234;BME280;62293;-26.174;27.908;2022-08-21T01:43:57;83973.95;;;17.35;17.54
73234;BME280;62293;-26.174;27.908;2022-08-21T01:46:22;83981.69;;;17.12;17.53
73234;BME280;62293;-26.174;27.908;2022-08-21T01:48:47;83987.55;;;16.54;17.67
73234;BME280;62293;-26.174;27.908;2022-08-21T01:51:13;83999.05;;;17.08;17.76
73234;BME280;62293;-26.174;27.908;2022-08-21T01:53:38;83998.06;;;16.51;17.99
73234;BME280;62293;-26.174;27.908;2022-08-21T01:56:06;84002.17;;;16.90;17.62
73234;BME280;62293;-26.174;27.908;2022-08-21T01:58:29;84008.30;;;16.95;17.84
73234;BME280;62293;-26.174;27.908;2022-08-21T02:00:54;83997.89;;;16.70;17.68
73234;BME280;62293;-26.174;27.908;2022-08-21T02:03:20;84003.95;;;16.70;17.67
73234;BME280;62293;-26.174;27.908;2022-08-21T02:05:45;84006.53;;;16.93;17.49
73234;BME280;62293;-26.174;27.908;2022-08-21T02:08:10;84006.56;;;16.84;17.63
73234;BME280;62293;-26.174;27.908;2022-08-21T02:10:35;83998.64;;;16.92;17.91
73234;BME280;62293;-26.174;27.908;2022-08-21T02:13:01;84003.66;;;16.71;17.58
73234;BME280;62293;-26.174;27.908;2022-08-21T02:15:27;84000.51;;;16.89;17.73
73234;BME280;62293;-26.174;27.908;2022-08-21T02:17:54;83995.23;;;16.83;17.48
73234;BME280;62293;-26.174;27.908;2022-08-21T02:20:19;84001.90;;;16.57;17.80
73234;BME280;62293;-26.174;27.908;2022-08-21T02:22:42;84007.26;;;16.80;17.84
73234;BME280;62293;-26.174;27.908;2022-08-21T02:25:08;84010.17;;;16.59;17.50
73234;BME280;62293;-26.174;27.908;2022-08-21T02:27:38;84014.76;;;16.72;17.71
73234;BME280;62293;-26.174;27.908;2022-08-21T02:29:58;84018.18;;;16.90;17.38
73234;BME280;62293;-26.174;27.908;2022-08-21T02:32:24;84018.44;;;17.25;17.42
73234;BME280;62293;-26.174;27.908;2022-08-21T02:34:53;84018.54;;;16.78;17.63
73234;BME280;62293;-26.174;27.908;2022-08-21T02:37:14;84023.58;;;17.13;17.53
73234;BME280;62293;-26.174;27.908;2022-08-21T02:39:39;84027.72;;;17.07;17.63
73234;BME280;62293;-26.174;27.908;2022-08-21T02:42:05;84030.76;;;16.79;17.45
73234;BME280;62293;-26.174;27.908;2022-08-21T02:44:30;84028.82;;;16.75;17.68
73234;BME280;62293;-26.174;27.908;2022-08-21T02:46:55;84026.95;;;16.36;17.90
73234;BME280;62293;-26.174;27.908;2022-08-21T02:49:21;84028.86;;;16.79;17.63
73234;BME280;62293;-26.174;27.908;2022-08-21T02:51:46;84030.40;;;16.71;17.78
73234;BME280;62293;-26.174;27.908;2022-08-21T02:54:12;84024.99;;;17.03;17.66
73234;BME280;62293;-26.174;27.908;2022-08-21T02:56:37;84023.45;;;16.74;17.83
73234;BME280;62293;-26.174;27.908;2022-08-21T02:59:02;84025.96;;;16.27;18.23
73234;BME280;62293;-26.174;27.908;2022-08-21T03:01:28;84027.51;;;16.86;17.90
73234;BME280;62293;-26.174;27.908;2022-08-21T03:03:53;84030.42;;;15.61;18.15
73234;BME280;62293;-26.174;27.908;2022-08-21T03:06:21;84026.25;;;16.48;17.94
73234;BME280;62293;-26.174;27.908;2022-08-21T03:08:44;84021.64;;;16.52;18.02
73234;BME280;62293;-26.174;27.908;2022-08-21T03:11:09;84019.34;;;16.61;17.89
73234;BME280;62293;-26.174;27.908;2022-08-21T03:13:35;84024.57;;;16.43;17.99
73234;BME280;62293;-26.174;27.908;2022-08-21T03:16:00;84033.08;;;16.14;18.21
73234;BME280;62293;-26.174;27.908;2022-08-21T03:18:26;84037.52;;;16.53;17.88
73234;BME280;62293;-26.174;27.908;2022-08-21T03:20:51;84039.69;;;16.60;17.87
73234;BME280;62293;-26.174;27.908;2022-08-21T03:23:17;84032.47;;;16.39;17.74
73234;BME280;62293;-26.174;27.908;2022-08-21T03:25:42;84027.60;;;16.49;17.79
73234;BME280;62293;-26.174;27.908;2022-08-21T03:28:09;84018.09;;;16.62;17.78
73234;BME280;62293;-26.174;27.908;2022-08-21T03:30:33;84024.15;;;17.07;17.89
73234;BME280;62293;-26.174;27.908;2022-08-21T03:32:59;84031.58;;;16.90;17.76
73234;BME280;62293;-26.174;27.908;2022-08-21T03:35:24;84040.75;;;16.91;17.85
73234;BME280;62293;-26.174;27.908;2022-08-21T03:37:49;84048.19;;;16.79;17.99
73234;BME280;62293;-26.174;27.908;2022-08-21T03:40:16;84053.18;;;16.92;17.97
73234;BME280;62293;-26.174;27.908;2022-08-21T03:42:39;84057.59;;;16.75;17.76
73234;BME280;62293;-26.174;27.908;2022-08-21T03:45:06;84063.07;;;17.06;17.87
73234;BME280;62293;-26.174;27.908;2022-08-21T03:47:30;84059.66;;;17.07;17.92
73234;BME280;62293;-26.174;27.908;2022-08-21T03:49:56;84060.35;;;17.22;18.12
73234;BME280;62293;-26.174;27.908;2022-08-21T03:52:21;84065.17;;;17.50;18.20
73234;BME280;62293;-26.174;27.908;2022-08-21T03:54:47;84072.03;;;17.01;18.50
73234;BME280;62293;-26.174;27.908;2022-08-21T03:57:12;84071.83;;;17.30;18.35
73234;BME280;62293;-26.174;27.908;2022-08-21T03:59:38;84069.44;;;17.36;18.48
73234;BME280;62293;-26.174;27.908;2022-08-21T04:02:04;84067.38;;;17.28;18.48
73234;BME280;62293;-26.174;27.908;2022-08-21T04:04:29;84072.32;;;17.05;18.45
73234;BME280;62293;-26.174;27.908;2022-08-21T04:06:54;84074.84;;;17.05;18.48
73234;BME280;62293;-26.174;27.908;2022-08-21T04:09:19;84067.50;;;17.29;18.48
73234;BME280;62293;-26.174;27.908;2022-08-21T04:11:44;84064.85;;;17.06;18.38
73234;BME280;62293;-26.174;27.908;2022-08-21T04:14:10;84070.09;;;17.16;18.73
73234;BME280;62293;-26.174;27.908;2022-08-21T04:16:35;84073.47;;;17.16;18.66
73234;BME280;62293;-26.174;27.908;2022-08-21T04:19:00;84081.77;;;17.36;18.75
73234;BME280;62293;-26.174;27.908;2022-08-21T04:21:26;84085.44;;;17.06;18.80
73234;BME280;62293;-26.174;27.908;2022-08-21T04:23:51;84083.52;;;17.24;18.96
73234;BME280;62293;-26.174;27.908;2022-08-21T04:26:16;84084.71;;;17.32;18.79
73234;BME280;62293;-26.174;27.908;2022-08-21T04:28:42;84083.12;;;17.14;18.99
73234;BME280;62293;-26.174;27.908;2022-08-21T04:31:08;84078.92;;;17.37;18.88
73234;BME280;62293;-26.174;27.908;2022-08-21T04:33:32;84074.67;;;17.51;18.55
73234;BME280;62293;-26.174;27.908;2022-08-21T04:35:58;84077.70;;;17.26;18.54
73234;BME280;62293;-26.174;27.908;2022-08-21T04:38:23;84077.18;;;17.15;19.01
73234;BME280;62293;-26.174;27.908;2022-08-21T04:40:49;84071.48;;;17.43;19.12
73234;BME280;62293;-26.174;27.908;2022-08-21T04:43:14;84073.45;;;17.19;19.06
73234;BME280;62293;-26.174;27.908;2022-08-21T04:45:41;84080.29;;;17.17;19.22
73234;BME280;62293;-26.174;27.908;2022-08-21T04:48:07;84080.95;;;17.41;19.16
73234;BME280;62293;-26.174;27.908;2022-08-21T04:50:35;84077.06;;;17.15;19.02
73234;BME280;62293;-26.174;27.908;2022-08-21T04:52:56;84079.19;;;17.48;19.32
73234;BME280;62293;-26.174;27.908;2022-08-21T04:55:22;84088.43;;;17.38;19.50
73234;BME280;62293;-26.174;27.908;2022-08-21T04:57:46;84091.56;;;17.16;19.53
73234;BME280;62293;-26.174;27.908;2022-08-21T05:00:14;84092.70;;;17.41;19.90
73234;BME280;62293;-26.174;27.908;2022-08-21T05:02:38;84094.13;;;17.26;19.87
73234;BME280;62293;-26.174;27.908;2022-08-21T05:05:02;84098.51;;;17.27;20.05
73234;BME280;62293;-26.174;27.908;2022-08-21T05:07:30;84101.66;;;17.31;20.16
73234;BME280;62293;-26.174;27.908;2022-08-21T05:09:54;84108.77;;;17.34;20.40
73234;BME280;62293;-26.174;27.908;2022-08-21T05:12:18;84115.80;;;17.57;20.56
73234;BME280;62293;-26.174;27.908;2022-08-21T05:14:43;84117.39;;;17.30;20.15
73234;BME280;62293;-26.174;27.908;2022-08-21T05:17:09;84115.17;;;17.50;20.38
73234;BME280;62293;-26.174;27.908;2022-08-21T05:19:34;84119.10;;;17.63;20.88
73234;BME280;62293;-26.174;27.908;2022-08-21T05:22:00;84123.79;;;17.71;20.79
73234;BME280;62293;-26.174;27.908;2022-08-21T05:24:25;84126.29;;;17.82;20.63
73234;BME280;62293;-26.174;27.908;2022-08-21T05:26:50;84124.46;;;17.77;20.44
73234;BME280;62293;-26.174;27.908;2022-08-21T05:29:16;84122.20;;;17.88;20.27
73234;BME280;62293;-26.174;27.908;2022-08-21T05:31:41;84123.67;;;17.77;20.27
73234;BME280;62293;-26.174;27.908;2022-08-21T05:34:07;84129.02;;;17.81;20.00
73234;BME280;62293;-26.174;27.908;2022-08-21T05:36:32;84133.24;;;18.30;19.79
73234;BME280;62293;-26.174;27.908;2022-08-21T05:38:57;84133.73;;;18.11;19.71
73234;BME280;62293;-26.174;27.908;2022-08-21T05:41:22;84132.88;;;17.91;19.89
73234;BME280;62293;-26.174;27.908;2022-08-21T05:43:48;84139.49;;;18.24;19.72
73234;BME280;62293;-26.174;27.908;2022-08-21T05:46:13;84150.63;;;18.33;19.79
73234;BME280;62293;-26.174;27.908;2022-08-21T05:48:38;84148.13;;;18.35;19.50
73234;BME280;62293;-26.174;27.908;2022-08-21T05:51:07;84147.60;;;18.79;19.56
73234;BME280;62293;-26.174;27.908;2022-08-21T05:53:29;84146.30;;;18.85;19.37
73234;BME280;62293;-26.174;27.908;2022-08-21T05:55:54;84158.11;;;18.54;19.80
73234;BME280;62293;-26.174;27.908;2022-08-21T05:58:21;84168.79;;;18.52;19.54
73234;BME280;62293;-26.174;27.908;2022-08-21T06:00:46;84174.91;;;18.59;19.56
73234;BME280;62293;-26.174;27.908;2022-08-21T06:03:13;84174.46;;;18.79;19.35
73234;BME280;62293;-26.174;27.908;2022-08-21T06:05:35;84181.92;;;19.02;19.40
73234;BME280;62293;-26.174;27.908;2022-08-21T06:08:01;84189.03;;;18.77;19.27
73234;BME280;62293;-26.174;27.908;2022-08-21T06:10:26;84196.24;;;19.30;19.09
73234;BME280;62293;-26.174;27.908;2022-08-21T06:12:53;84200.87;;;18.07;18.42
73234;BME280;62293;-26.174;27.908;2022-08-21T06:15:17;84206.08;;;17.85;18.82
73234;BME280;62293;-26.174;27.908;2022-08-21T06:17:42;84207.22;;;18.57;18.73
73234;BME280;62293;-26.174;27.908;2022-08-21T06:20:09;84205.54;;;17.92;19.08
73234;BME280;62293;-26.174;27.908;2022-08-21T06:22:33;84210.16;;;17.43;19.01
73234;BME280;62293;-26.174;27.908;2022-08-21T06:24:58;84213.33;;;18.63;18.83
73234;BME280;62293;-26.174;27.908;2022-08-21T06:27:24;84212.20;;;18.78;19.08
73234;BME280;62293;-26.174;27.908;2022-08-21T06:29:49;84220.90;;;18.31;18.55
73234;BME280;62293;-26.174;27.908;2022-08-21T06:32:14;84221.61;;;18.98;18.30
73234;BME280;62293;-26.174;27.908;2022-08-21T06:34:41;84225.42;;;19.06;18.29
73234;BME280;62293;-26.174;27.908;2022-08-21T06:37:05;84231.46;;;19.19;18.50
73234;BME280;62293;-26.174;27.908;2022-08-21T06:39:31;84236.74;;;18.97;18.48
73234;BME280;62293;-26.174;27.908;2022-08-21T06:41:56;84236.37;;;19.32;18.14
73234;BME280;62293;-26.174;27.908;2022-08-21T06:44:21;84239.50;;;19.15;18.33
73234;BME280;62293;-26.174;27.908;2022-08-21T06:46:45;84235.42;;;19.12;18.24
73234;BME280;62293;-26.174;27.908;2022-08-21T06:49:11;84236.98;;;19.50;18.10
73234;BME280;62293;-26.174;27.908;2022-08-21T06:51:36;84240.36;;;19.77;18.17
73234;BME280;62293;-26.174;27.908;2022-08-21T06:54:02;84240.41;;;19.69;17.93
73234;BME280;62293;-26.174;27.908;2022-08-21T06:56:27;84240.99;;;20.43;17.93
73234;BME280;62293;-26.174;27.908;2022-08-21T06:58:52;84239.35;;;19.58;18.54
73234;BME280;62293;-26.174;27.908;2022-08-21T07:01:18;84240.95;;;19.84;18.26
73234;BME280;62293;-26.174;27.908;2022-08-21T07:03:43;84243.20;;;19.68;17.77
73234;BME280;62293;-26.174;27.908;2022-08-21T07:06:09;84246.99;;;20.64;17.59
73234;BME280;62293;-26.174;27.908;2022-08-21T07:08:34;84251.94;;;19.95;17.39
73234;BME280;62293;-26.174;27.908;2022-08-21T07:11:00;84252.94;;;19.88;17.80
73234;BME280;62293;-26.174;27.908;2022-08-21T07:13:24;84251.73;;;20.63;17.35
73234;BME280;62293;-26.174;27.908;2022-08-21T07:15:49;84252.82;;;20.67;17.36
73234;BME280;62293;-26.174;27.908;2022-08-21T07:18:15;84252.85;;;20.72;17.34
73234;BME280;62293;-26.174;27.908;2022-08-21T07:20:41;84252.53;;;20.33;17.43
73234;BME280;62293;-26.174;27.908;2022-08-21T07:23:09;84260.06;;;20.66;16.86
73234;BME280;62293;-26.174;27.908;2022-08-21T07:25:31;84263.69;;;20.95;17.22
73234;BME280;62293;-26.174;27.908;2022-08-21T07:27:57;84262.57;;;21.02;17.25
73234;BME280;62293;-26.174;27.908;2022-08-21T07:30:23;84262.41;;;19.82;16.95
73234;BME280;62293;-26.174;27.908;2022-08-21T07:32:48;84256.44;;;19.74;17.34
73234;BME280;62293;-26.174;27.908;2022-08-21T07:35:19;84255.42;;;20.09;17.47
73234;BME280;62293;-26.174;27.908;2022-08-21T07:37:39;84252.22;;;20.57;17.22
73234;BME280;62293;-26.174;27.908;2022-08-21T07:40:05;84250.49;;;21.05;16.35
73234;BME280;62293;-26.174;27.908;2022-08-21T07:42:29;84254.41;;;21.00;16.86
73234;BME280;62293;-26.174;27.908;2022-08-21T07:44:55;84250.74;;;20.64;17.14
73234;BME280;62293;-26.174;27.908;2022-08-21T07:47:20;84248.69;;;21.01;16.43
73234;BME280;62293;-26.174;27.908;2022-08-21T07:49:44;84253.18;;;20.63;16.36
73234;BME280;62293;-26.174;27.908;2022-08-21T07:52:09;84253.94;;;20.63;16.86
73234;BME280;62293;-26.174;27.908;2022-08-21T07:54:36;84251.76;;;21.18;16.28
73234;BME280;62293;-26.174;27.908;2022-08-21T07:57:01;84249.42;;;20.83;15.98
73234;BME280;62293;-26.174;27.908;2022-08-21T07:59:27;84248.68;;;20.53;16.45
73234;BME280;62293;-26.174;27.908;2022-08-21T08:01:52;84252.17;;;20.77;16.13
73234;BME280;62293;-26.174;27.908;2022-08-21T08:04:17;84258.16;;;21.10;15.57
73234;BME280;62293;-26.174;27.908;2022-08-21T08:06:42;84255.68;;;20.96;16.11
73234;BME280;62293;-26.174;27.908;2022-08-21T08:09:07;84256.54;;;21.04;15.91
73234;BME280;62293;-26.174;27.908;2022-08-21T08:11:33;84259.11;;;20.68;15.81
73234;BME280;62293;-26.174;27.908;2022-08-21T08:13:58;84259.79;;;21.17;15.75
73234;BME280;62293;-26.174;27.908;2022-08-21T08:16:24;84265.92;;;20.43;15.54
73234;BME280;62293;-26.174;27.908;2022-08-21T08:18:50;84255.69;;;21.54;15.60
73234;BME280;62293;-26.174;27.908;2022-08-21T08:21:17;84257.37;;;21.27;15.71
73234;BME280;62293;-26.174;27.908;2022-08-21T08:23:41;84259.87;;;21.65;15.56
73234;BME280;62293;-26.174;27.908;2022-08-21T08:26:06;84255.56;;;21.35;15.46
73234;BME280;62293;-26.174;27.908;2022-08-21T08:28:32;84253.62;;;20.77;15.97
73234;BME280;62293;-26.174;27.908;2022-08-21T08:30:57;84262.48;;;21.50;15.75
73234;BME280;62293;-26.174;27.908;2022-08-21T08:33:22;84259.95;;;21.69;15.13
73234;BME280;62293;-26.174;27.908;2022-08-21T08:35:50;84258.10;;;21.39;15.26
73234;BME280;62293;-26.174;27.908;2022-08-21T08:38:14;84255.71;;;21.51;15.65
73234;BME280;62293;-26.174;27.908;2022-08-21T08:40:44;84257.38;;;21.20;15.75
73234;BME280;62293;-26.174;27.908;2022-08-21T08:43:04;84255.78;;;21.61;14.77
73234;BME280;62293;-26.174;27.908;2022-08-21T08:45:31;84255.35;;;21.26;15.16
73234;BME280;62293;-26.174;27.908;2022-08-21T08:47:58;84242.18;;;21.17;15.52
73234;BME280;62293;-26.174;27.908;2022-08-21T08:50:24;84248.71;;;21.35;15.66
73234;BME280;62293;-26.174;27.908;2022-08-21T08:52:51;84250.66;;;21.74;15.11
73234;BME280;62293;-26.174;27.908;2022-08-21T08:55:14;84251.35;;;21.72;15.51
73234;BME280;62293;-26.174;27.908;2022-08-21T08:57:38;84243.81;;;21.75;15.26
73234;BME280;62293;-26.174;27.908;2022-08-21T09:00:04;84249.67;;;22.07;14.81
73234;BME280;62293;-26.174;27.908;2022-08-21T09:02:26;84243.94;;;22.09;14.87
73234;BME280;62293;-26.174;27.908;2022-08-21T09:04:51;84243.01;;;21.70;15.06
73234;BME280;62293;-26.174;27.908;2022-08-21T09:07:24;84247.26;;;21.84;14.80
73234;BME280;62293;-26.174;27.908;2022-08-21T09:09:51;84239.27;;;22.09;14.21
73234;BME280;62293;-26.174;27.908;2022-08-21T09:12:14;84243.23;;;22.68;14.09
73234;BME280;62293;-26.174;27.908;2022-08-21T09:14:45;84245.39;;;22.15;13.93
73234;BME280;62293;-26.174;27.908;2022-08-21T09:17:04;84246.95;;;22.49;14.32
73234;BME280;62293;-26.174;27.908;2022-08-21T09:19:35;84241.76;;;21.91;14.08
73234;BME280;62293;-26.174;27.908;2022-08-21T09:21:55;84244.90;;;22.37;14.49
73234;BME280;62293;-26.174;27.908;2022-08-21T09:24:25;84240.88;;;22.17;14.22
73234;BME280;62293;-26.174;27.908;2022-08-21T09:26:46;84241.54;;;22.27;13.69
73234;BME280;62293;-26.174;27.908;2022-08-21T09:29:06;84233.32;;;22.01;14.41
73234;BME280;62293;-26.174;27.908;2022-08-21T09:31:33;84231.15;;;22.23;14.09
73234;BME280;62293;-26.174;27.908;2022-08-21T09:33:59;84234.68;;;21.87;13.99
73234;BME280;62293;-26.174;27.908;2022-08-21T09:36:28;84222.73;;;22.19;14.05
73234;BME280;62293;-26.174;27.908;2022-08-21T09:38:53;84215.54;;;22.06;14.38
73234;BME280;62293;-26.174;27.908;2022-08-21T09:41:14;84223.33;;;22.63;13.75
73234;BME280;62293;-26.174;27.908;2022-08-21T09:43:39;84214.71;;;21.75;14.42
73234;BME280;62293;-26.174;27.908;2022-08-21T09:46:08;84210.00;;;23.03;13.98
73234;BME280;62293;-26.174;27.908;2022-08-21T09:48:37;84209.33;;;21.80;14.30
73234;BME280;62293;-26.174;27.908;2022-08-21T09:53:24;84203.43;;;22.25;13.72
73234;BME280;62293;-26.174;27.908;2022-08-21T09:55:53;84192.65;;;23.01;13.83
73234;BME280;62293;-26.174;27.908;2022-08-21T09:58:12;84199.55;;;21.93;13.60
73234;BME280;62293;-26.174;27.908;2022-08-21T10:00:38;84191.94;;;22.91;13.60
73234;BME280;62293;-26.174;27.908;2022-08-21T10:03:11;84187.46;;;22.93;13.57
73234;BME280;62293;-26.174;27.908;2022-08-21T10:05:29;84196.38;;;22.08;13.02
73234;BME280;62293;-26.174;27.908;2022-08-21T10:07:54;84185.80;;;22.54;13.68
73234;BME280;62293;-26.174;27.908;2022-08-21T10:10:28;84188.38;;;22.26;13.54
73234;BME280;62293;-26.174;27.908;2022-08-21T10:12:52;84186.91;;;22.83;13.35
73234;BME280;62293;-26.174;27.908;2022-08-21T10:15:17;84181.62;;;22.67;13.75
73234;BME280;62293;-26.174;27.908;2022-08-21T10:17:43;84179.57;;;22.58;13.81
73234;BME280;62293;-26.174;27.908;2022-08-21T10:20:06;84172.89;;;22.92;13.45
73234;BME280;62293;-26.174;27.908;2022-08-21T10:22:34;84171.91;;;22.98;13.77
73234;BME280;62293;-26.174;27.908;2022-08-21T10:25:00;84170.66;;;22.99;13.63
73234;BME280;62293;-26.174;27.908;2022-08-21T10:27:25;84171.59;;;22.67;13.68
73234;BME280;62293;-26.174;27.908;2022-08-21T10:29:49;84161.13;;;23.10;13.15
73234;BME280;62293;-26.174;27.908;2022-08-21T10:32:15;84160.85;;;22.92;13.37
73234;BME280;62293;-26.174;27.908;2022-08-21T10:34:40;84157.53;;;22.98;13.03
73234;BME280;62293;-26.174;27.908;2022-08-21T10:37:10;84156.62;;;23.36;12.96
73234;BME280;62293;-26.174;27.908;2022-08-21T10:39:28;84152.24;;;23.12;12.94
73234;BME280;62293;-26.174;27.908;2022-08-21T10:42:03;84140.03;;;22.65;13.58
73234;BME280;62293;-26.174;27.908;2022-08-21T10:44:23;84142.06;;;23.26;12.79
73234;BME280;62293;-26.174;27.908;2022-08-21T10:46:45;84141.27;;;23.47;13.34
73234;BME280;62293;-26.174;27.908;2022-08-21T10:49:13;84146.37;;;23.53;12.97
73234;BME280;62293;-26.174;27.908;2022-08-21T10:51:42;84143.82;;;23.18;12.67
73234;BME280;62293;-26.174;27.908;2022-08-21T10:54:02;84139.77;;;23.04;12.91
73234;BME280;62293;-26.174;27.908;2022-08-21T10:56:23;84134.63;;;23.13;13.02
73234;BME280;62293;-26.174;27.908;2022-08-21T10:58:55;84133.27;;;22.71;13.43
73234;BME280;62293;-26.174;27.908;2022-08-21T11:01:15;84137.77;;;23.04;12.59
73234;BME280;62293;-26.174;27.908;2022-08-21T11:03:42;84139.50;;;22.67;13.32
73234;BME280;62293;-26.174;27.908;2022-08-21T11:06:06;84136.11;;;23.78;12.75
73234;BME280;62293;-26.174;27.908;2022-08-21T11:08:31;84129.79;;;23.59;12.36
73234;BME280;62293;-26.174;27.908;2022-08-21T11:10:59;84131.72;;;23.61;11.87
73234;BME280;62293;-26.174;27.908;2022-08-21T11:13:25;84131.31;;;23.47;12.46
73234;BME280;62293;-26.174;27.908;2022-08-21T11:15:50;84131.13;;;23.52;11.85
73234;BME280;62293;-26.174;27.908;2022-08-21T11:18:19;84129.28;;;23.66;12.11
73234;BME280;62293;-26.174;27.908;2022-08-21T11:20:40;84126.17;;;23.24;12.41
73234;BME280;62293;-26.174;27.908;2022-08-21T11:23:08;84117.77;;;23.41;12.57
73234;BME280;62293;-26.174;27.908;2022-08-21T11:25:31;84113.85;;;23.22;12.67
73234;BME280;62293;-26.174;27.908;2022-08-21T11:27:54;84106.89;;;23.63;12.10
73234;BME280;62293;-26.174;27.908;2022-08-21T11:30:17;84104.76;;;24.35;11.73
73234;BME280;62293;-26.174;27.908;2022-08-21T11:32:59;84102.41;;;23.56;11.59
73234;BME280;62293;-26.174;27.908;2022-08-21T11:35:13;84101.99;;;23.63;12.13
73234;BME280;62293;-26.174;27.908;2022-08-21T11:37:45;84098.78;;;23.63;12.01
73234;BME280;62293;-26.174;27.908;2022-08-21T11:40:04;84100.63;;;23.46;12.57
73234;BME280;62293;-26.174;27.908;2022-08-21T11:42:29;84102.98;;;23.64;12.26
73234;BME280;62293;-26.174;27.908;2022-08-21T11:44:53;84092.87;;;23.27;12.52
73234;BME280;62293;-26.174;27.908;2022-08-21T11:47:22;84091.78;;;23.28;12.28
73234;BME280;62293;-26.174;27.908;2022-08-21T11:49:53;84090.83;;;23.64;11.91
73234;BME280;62293;-26.174;27.908;2022-08-21T11:52:13;84092.14;;;23.28;11.09
73234;BME280;62293;-26.174;27.908;2022-08-21T11:54:37;84086.42;;;22.93;11.24
73234;BME280;62293;-26.174;27.908;2022-08-21T11:57:02;84087.38;;;21.86;11.11
73234;BME280;62293;-26.174;27.908;2022-08-21T11:59:31;84089.18;;;20.73;11.07
73234;BME280;62293;-26.174;27.908;2022-08-21T12:01:50;84095.63;;;20.97;11.04
73234;BME280;62293;-26.174;27.908;2022-08-21T12:04:22;84097.91;;;20.99;10.73
73234;BME280;62293;-26.174;27.908;2022-08-21T12:06:41;84087.37;;;21.55;10.90
73234;BME280;62293;-26.174;27.908;2022-08-21T12:09:07;84086.24;;;21.61;10.49
73234;BME280;62293;-26.174;27.908;2022-08-21T12:11:31;84082.40;;;20.65;10.65
73234;BME280;62293;-26.174;27.908;2022-08-21T12:13:59;84087.56;;;20.68;10.85
73234;BME280;62293;-26.174;27.908;2022-08-21T12:16:30;84077.62;;;20.45;10.24
73234;BME280;62293;-26.174;27.908;2022-08-21T12:18:47;84082.58;;;20.63;10.82
73234;BME280;62293;-26.174;27.908;2022-08-21T12:21:23;84081.61;;;20.16;11.05
73234;BME280;62293;-26.174;27.908;2022-08-21T12:23:45;84074.25;;;18.97;11.27
73234;BME280;62293;-26.174;27.908;2022-08-21T12:26:18;84070.42;;;19.31;10.94
73234;BME280;62293;-26.174;27.908;2022-08-21T12:28:31;84075.19;;;19.70;11.05
73234;BME280;62293;-26.174;27.908;2022-08-21T12:30:55;84075.15;;;20.20;10.63
73234;BME280;62293;-26.174;27.908;2022-08-21T12:33:23;84077.53;;;19.58;11.41